Airfield :
LOGIN :

Register | Disclaimer

   EN    FR    IT 

 










Legend :    VFR   Marginal VFR   IFR   Intensive IFR   Very Intensive IFR
Visi :
Ceiling :
>= 8 km
>= 3000ft
5 to 8 km
1000 to 3000 ft
1500m to 5 km
500 to 1000 ft
800 to 1500m
200 to 500 ft
< 800m
< 200 ft
Symbols :   Thunderstorms  Fog  Heavy snow  Heavy precipitations  Wind > 20 kt
SIGMETs :     Misc.  Thunderstorms  Icing  Turbulence  Mountain Waves  Volcanic Ashes






- Airport Elevation : 556 ft


ESMV - Hasghult

CURRENT METAR :
  • 280420Z AUTO VRB02KT 9999 OVC016/// 01/M01 Q1016

EXPIRED METARs :
  • 280350Z AUTO 21002KT 9999 OVC016/// 00/M01 Q1016
  • 280320Z AUTO 22005KT 9999 OVC017/// 00/M01 Q1016
  • 280250Z AUTO 23004KT 9999 OVC015/// 00/M01 Q1017
  • 280220Z AUTO 22005KT 9999 OVC013/// 00/M01 Q1017
  • 280150Z AUTO 22005KT 9999 OVC012/// 00/M01 Q1017
  • 280120Z AUTO 20003KT 150V240 9999 OVC012/// 00/M01 Q1017
  • 280050Z AUTO VRB01KT 9999 OVC012/// 00/M01 Q1017
  • 280020Z AUTO 21003KT 160V240 9999 OVC010/// M00/M01 Q1017
  • 272350Z AUTO 22006KT 9999 SCT006/// OVC008/// M00/M01 Q1017

Expired Forecast.



MET'MAP, your aeronautical weather chart ! - Copyright ORBIFLY December 2007 - Disclaimer

ORBIFLY MET'MAP TEAM :

Programming & Development : Alexandra Zaïnal
Original concept : Baudouin d'Aumeries
Technical & hardware support : Manuel Goepfert
Assistance : Marc-Olivier Méhu




SOURCES & CREDITS :

   NOAA